sensor_id;sensor_type;location;lat;lon;timestamp;P1;durP1;ratioP1;P2;durP2;ratioP2
75649;SDS011;64245;51.282;22.494;2023-03-11T00:01:30;15.98;;;9.48;;
75649;SDS011;64245;51.282;22.494;2023-03-11T00:03:57;18.92;;;9.85;;
75649;SDS011;64245;51.282;22.494;2023-03-11T00:06:24;15.88;;;9.70;;
75649;SDS011;64245;51.282;22.494;2023-03-11T00:08:50;20.27;;;9.73;;
75649;SDS011;64245;51.282;22.494;2023-03-11T00:11:16;18.98;;;10.82;;
75649;SDS011;64245;51.282;22.494;2023-03-11T00:13:42;20.83;;;10.13;;
75649;SDS011;64245;51.282;22.494;2023-03-11T00:16:08;15.73;;;8.95;;
75649;SDS011;64245;51.282;22.494;2023-03-11T00:18:34;16.52;;;10.27;;
75649;SDS011;64245;51.282;22.494;2023-03-11T00:20:59;17.05;;;9.82;;
75649;SDS011;64245;51.282;22.494;2023-03-11T00:23:26;17.98;;;10.60;;
75649;SDS011;64245;51.282;22.494;2023-03-11T00:25:52;16.85;;;9.68;;
75649;SDS011;64245;51.282;22.494;2023-03-11T00:28:18;18.75;;;10.57;;
75649;SDS011;64245;51.282;22.494;2023-03-11T00:30:46;18.13;;;10.32;;
75649;SDS011;64245;51.282;22.494;2023-03-11T00:33:13;17.38;;;9.27;;
75649;SDS011;64245;51.282;22.494;2023-03-11T00:35:39;18.05;;;9.70;;
75649;SDS011;64245;51.282;22.494;2023-03-11T00:38:06;15.15;;;9.88;;
75649;SDS011;64245;51.282;22.494;2023-03-11T00:40:33;18.08;;;10.25;;
75649;SDS011;64245;51.282;22.494;2023-03-11T00:43:00;20.20;;;10.68;;
75649;SDS011;64245;51.282;22.494;2023-03-11T00:45:26;21.20;;;10.40;;
75649;SDS011;64245;51.282;22.494;2023-03-11T00:47:53;19.05;;;10.18;;
75649;SDS011;64245;51.282;22.494;2023-03-11T00:50:20;19.38;;;10.43;;
75649;SDS011;64245;51.282;22.494;2023-03-11T00:52:51;16.27;;;9.45;;
75649;SDS011;64245;51.282;22.494;2023-03-11T00:55:19;23.30;;;10.63;;
75649;SDS011;64245;51.282;22.494;2023-03-11T00:57:58;19.98;;;11.15;;
75649;SDS011;64245;51.282;22.494;2023-03-11T01:00:26;18.38;;;10.23;;
75649;SDS011;64245;51.282;22.494;2023-03-11T01:02:54;18.48;;;9.30;;
75649;SDS011;64245;51.282;22.494;2023-03-11T01:05:20;19.42;;;9.57;;
75649;SDS011;64245;51.282;22.494;2023-03-11T01:07:48;17.52;;;9.68;;
75649;SDS011;64245;51.282;22.494;2023-03-11T01:10:14;17.52;;;9.82;;
75649;SDS011;64245;51.282;22.494;2023-03-11T01:12:40;18.52;;;10.30;;
75649;SDS011;64245;51.282;22.494;2023-03-11T01:15:06;16.58;;;9.88;;
75649;SDS011;64245;51.282;22.494;2023-03-11T01:17:32;17.58;;;9.25;;
75649;SDS011;64245;51.282;22.494;2023-03-11T01:19:58;16.98;;;9.55;;
75649;SDS011;64245;51.282;22.494;2023-03-11T01:22:24;19.58;;;9.30;;
75649;SDS011;64245;51.282;22.494;2023-03-11T01:24:50;15.65;;;8.77;;
75649;SDS011;64245;51.282;22.494;2023-03-11T01:27:16;16.77;;;8.93;;
75649;SDS011;64245;51.282;22.494;2023-03-11T01:29:41;18.23;;;9.25;;
75649;SDS011;64245;51.282;22.494;2023-03-11T01:32:07;17.70;;;9.70;;
75649;SDS011;64245;51.282;22.494;2023-03-11T01:34:32;18.33;;;10.20;;
75649;SDS011;64245;51.282;22.494;2023-03-11T01:37:03;16.40;;;8.80;;
75649;SDS011;64245;51.282;22.494;2023-03-11T01:39:29;16.60;;;10.15;;
75649;SDS011;64245;51.282;22.494;2023-03-11T01:41:55;17.85;;;9.75;;
75649;SDS011;64245;51.282;22.494;2023-03-11T01:44:20;16.48;;;10.18;;
75649;SDS011;64245;51.282;22.494;2023-03-11T01:49:18;18.15;;;9.73;;
75649;SDS011;64245;51.282;22.494;2023-03-11T01:52:02;19.77;;;9.18;;
75649;SDS011;64245;51.282;22.494;2023-03-11T01:54:32;16.95;;;9.13;;
75649;SDS011;64245;51.282;22.494;2023-03-11T01:57:02;16.50;;;9.55;;
75649;SDS011;64245;51.282;22.494;2023-03-11T01:59:35;17.58;;;8.70;;
75649;SDS011;64245;51.282;22.494;2023-03-11T02:04:52;19.25;;;9.88;;
75649;SDS011;64245;51.282;22.494;2023-03-11T02:07:19;18.20;;;9.60;;
75649;SDS011;64245;51.282;22.494;2023-03-11T02:09:44;18.50;;;9.88;;
75649;SDS011;64245;51.282;22.494;2023-03-11T02:12:10;16.63;;;9.90;;
75649;SDS011;64245;51.282;22.494;2023-03-11T02:14:39;17.50;;;9.80;;
75649;SDS011;64245;51.282;22.494;2023-03-11T02:17:08;16.33;;;9.15;;
75649;SDS011;64245;51.282;22.494;2023-03-11T02:22:25;20.42;;;10.27;;
75649;SDS011;64245;51.282;22.494;2023-03-11T02:27:58;19.67;;;9.85;;
75649;SDS011;64245;51.282;22.494;2023-03-11T02:30:26;17.73;;;9.45;;
75649;SDS011;64245;51.282;22.494;2023-03-11T02:32:53;20.13;;;10.02;;
75649;SDS011;64245;51.282;22.494;2023-03-11T02:35:20;17.02;;;8.50;;
75649;SDS011;64245;51.282;22.494;2023-03-11T02:37:46;19.05;;;8.38;;
75649;SDS011;64245;51.282;22.494;2023-03-11T02:42:49;15.70;;;8.48;;
75649;SDS011;64245;51.282;22.494;2023-03-11T02:45:19;14.63;;;9.25;;
75649;SDS011;64245;51.282;22.494;2023-03-11T02:47:46;15.55;;;8.90;;
75649;SDS011;64245;51.282;22.494;2023-03-11T02:50:14;16.90;;;8.95;;
75649;SDS011;64245;51.282;22.494;2023-03-11T02:52:41;16.58;;;9.02;;
75649;SDS011;64245;51.282;22.494;2023-03-11T02:55:07;19.50;;;9.75;;
75649;SDS011;64245;51.282;22.494;2023-03-11T02:57:34;16.92;;;9.07;;
75649;SDS011;64245;51.282;22.494;2023-03-11T02:59:59;19.42;;;10.30;;
75649;SDS011;64245;51.282;22.494;2023-03-11T03:02:32;17.40;;;8.90;;
75649;SDS011;64245;51.282;22.494;2023-03-11T03:04:58;16.77;;;9.38;;
75649;SDS011;64245;51.282;22.494;2023-03-11T03:07:23;19.10;;;9.50;;
75649;SDS011;64245;51.282;22.494;2023-03-11T03:09:49;21.08;;;10.43;;
75649;SDS011;64245;51.282;22.494;2023-03-11T03:12:15;19.58;;;10.38;;
75649;SDS011;64245;51.282;22.494;2023-03-11T03:14:40;22.10;;;11.45;;
75649;SDS011;64245;51.282;22.494;2023-03-11T03:17:06;23.45;;;10.80;;
75649;SDS011;64245;51.282;22.494;2023-03-11T03:19:31;20.30;;;10.38;;
75649;SDS011;64245;51.282;22.494;2023-03-11T03:21:57;21.65;;;10.98;;
75649;SDS011;64245;51.282;22.494;2023-03-11T03:24:23;23.65;;;11.90;;
75649;SDS011;64245;51.282;22.494;2023-03-11T03:26:48;19.27;;;10.38;;
75649;SDS011;64245;51.282;22.494;2023-03-11T03:29:14;24.38;;;11.65;;
75649;SDS011;64245;51.282;22.494;2023-03-11T03:31:40;26.42;;;12.63;;
75649;SDS011;64245;51.282;22.494;2023-03-11T03:34:05;22.33;;;10.45;;
75649;SDS011;64245;51.282;22.494;2023-03-11T03:36:31;25.25;;;12.10;;
75649;SDS011;64245;51.282;22.494;2023-03-11T03:38:56;26.42;;;12.13;;
75649;SDS011;64245;51.282;22.494;2023-03-11T03:41:23;25.08;;;13.93;;
75649;SDS011;64245;51.282;22.494;2023-03-11T03:43:49;25.25;;;12.10;;
75649;SDS011;64245;51.282;22.494;2023-03-11T03:46:15;25.33;;;12.48;;
75649;SDS011;64245;51.282;22.494;2023-03-11T03:48:40;23.48;;;11.50;;
75649;SDS011;64245;51.282;22.494;2023-03-11T03:51:08;22.23;;;11.95;;
75649;SDS011;64245;51.282;22.494;2023-03-11T03:53:35;22.30;;;11.70;;
75649;SDS011;64245;51.282;22.494;2023-03-11T03:56:02;23.42;;;10.95;;
75649;SDS011;64245;51.282;22.494;2023-03-11T03:58:28;20.80;;;11.18;;
75649;SDS011;64245;51.282;22.494;2023-03-11T04:00:55;25.45;;;12.60;;
75649;SDS011;64245;51.282;22.494;2023-03-11T04:03:21;22.35;;;11.52;;
75649;SDS011;64245;51.282;22.494;2023-03-11T04:05:47;29.50;;;13.05;;
75649;SDS011;64245;51.282;22.494;2023-03-11T04:08:12;24.55;;;11.30;;
75649;SDS011;64245;51.282;22.494;2023-03-11T04:10:38;22.40;;;11.38;;
75649;SDS011;64245;51.282;22.494;2023-03-11T04:13:04;18.75;;;10.43;;
75649;SDS011;64245;51.282;22.494;2023-03-11T04:15:30;28.25;;;13.15;;
75649;SDS011;64245;51.282;22.494;2023-03-11T04:17:55;22.40;;;11.77;;
75649;SDS011;64245;51.282;22.494;2023-03-11T04:20:21;22.95;;;11.38;;
75649;SDS011;64245;51.282;22.494;2023-03-11T04:22:46;26.48;;;11.43;;
75649;SDS011;64245;51.282;22.494;2023-03-11T04:25:12;27.42;;;14.02;;
75649;SDS011;64245;51.282;22.494;2023-03-11T04:27:38;23.45;;;11.55;;
75649;SDS011;64245;51.282;22.494;2023-03-11T04:30:07;24.60;;;13.13;;
75649;SDS011;64245;51.282;22.494;2023-03-11T04:32:33;29.55;;;14.00;;
75649;SDS011;64245;51.282;22.494;2023-03-11T04:34:59;20.25;;;11.55;;
75649;SDS011;64245;51.282;22.494;2023-03-11T04:37:28;24.10;;;12.07;;
75649;SDS011;64245;51.282;22.494;2023-03-11T04:39:54;25.77;;;11.70;;
75649;SDS011;64245;51.282;22.494;2023-03-11T04:42:19;26.60;;;13.02;;
75649;SDS011;64245;51.282;22.494;2023-03-11T04:44:45;23.10;;;12.77;;
75649;SDS011;64245;51.282;22.494;2023-03-11T04:47:10;23.05;;;10.70;;
75649;SDS011;64245;51.282;22.494;2023-03-11T04:49:36;21.85;;;11.13;;
75649;SDS011;64245;51.282;22.494;2023-03-11T04:52:02;22.27;;;11.35;;
75649;SDS011;64245;51.282;22.494;2023-03-11T04:54:28;20.63;;;11.18;;
75649;SDS011;64245;51.282;22.494;2023-03-11T04:56:53;22.13;;;11.15;;
75649;SDS011;64245;51.282;22.494;2023-03-11T04:59:19;20.75;;;10.32;;
75649;SDS011;64245;51.282;22.494;2023-03-11T05:01:44;19.00;;;10.27;;
75649;SDS011;64245;51.282;22.494;2023-03-11T05:04:10;19.80;;;11.23;;
75649;SDS011;64245;51.282;22.494;2023-03-11T05:06:37;19.10;;;10.15;;
75649;SDS011;64245;51.282;22.494;2023-03-11T05:09:03;23.45;;;12.30;;
75649;SDS011;64245;51.282;22.494;2023-03-11T05:11:29;19.80;;;10.85;;
75649;SDS011;64245;51.282;22.494;2023-03-11T05:13:55;23.15;;;12.57;;
75649;SDS011;64245;51.282;22.494;2023-03-11T05:16:21;22.15;;;12.60;;
75649;SDS011;64245;51.282;22.494;2023-03-11T05:18:46;23.48;;;10.85;;
75649;SDS011;64245;51.282;22.494;2023-03-11T05:21:12;19.73;;;10.35;;
75649;SDS011;64245;51.282;22.494;2023-03-11T05:23:38;22.27;;;10.82;;
75649;SDS011;64245;51.282;22.494;2023-03-11T05:26:04;18.58;;;10.23;;
75649;SDS011;64245;51.282;22.494;2023-03-11T05:28:30;20.40;;;10.48;;
75649;SDS011;64245;51.282;22.494;2023-03-11T05:30:56;20.20;;;10.38;;
75649;SDS011;64245;51.282;22.494;2023-03-11T05:33:22;18.25;;;10.38;;
75649;SDS011;64245;51.282;22.494;2023-03-11T05:35:47;17.50;;;9.52;;
75649;SDS011;64245;51.282;22.494;2023-03-11T05:38:13;21.20;;;10.02;;
75649;SDS011;64245;51.282;22.494;2023-03-11T05:40:39;20.33;;;10.70;;
75649;SDS011;64245;51.282;22.494;2023-03-11T05:43:05;21.05;;;10.27;;
75649;SDS011;64245;51.282;22.494;2023-03-11T05:45:30;19.08;;;10.32;;
75649;SDS011;64245;51.282;22.494;2023-03-11T05:47:56;20.02;;;10.27;;
75649;SDS011;64245;51.282;22.494;2023-03-11T05:50:22;20.48;;;10.40;;
75649;SDS011;64245;51.282;22.494;2023-03-11T05:52:48;20.33;;;10.23;;
75649;SDS011;64245;51.282;22.494;2023-03-11T05:55:13;21.63;;;11.48;;
75649;SDS011;64245;51.282;22.494;2023-03-11T05:57:39;19.95;;;10.23;;
75649;SDS011;64245;51.282;22.494;2023-03-11T06:00:05;23.50;;;11.13;;
75649;SDS011;64245;51.282;22.494;2023-03-11T06:02:39;23.15;;;10.73;;
75649;SDS011;64245;51.282;22.494;2023-03-11T06:05:05;19.70;;;10.02;;
75649;SDS011;64245;51.282;22.494;2023-03-11T06:07:35;20.13;;;10.10;;
75649;SDS011;64245;51.282;22.494;2023-03-11T06:10:01;22.98;;;11.27;;
75649;SDS011;64245;51.282;22.494;2023-03-11T06:12:28;23.27;;;11.55;;
75649;SDS011;64245;51.282;22.494;2023-03-11T06:14:54;23.13;;;12.20;;
75649;SDS011;64245;51.282;22.494;2023-03-11T06:17:19;23.63;;;11.98;;
75649;SDS011;64245;51.282;22.494;2023-03-11T06:19:45;25.45;;;11.38;;
75649;SDS011;64245;51.282;22.494;2023-03-11T06:22:10;28.58;;;13.13;;
75649;SDS011;64245;51.282;22.494;2023-03-11T06:24:36;28.77;;;13.45;;
75649;SDS011;64245;51.282;22.494;2023-03-11T06:27:02;23.67;;;11.45;;
75649;SDS011;64245;51.282;22.494;2023-03-11T06:29:27;28.00;;;13.68;;
75649;SDS011;64245;51.282;22.494;2023-03-11T06:31:54;25.30;;;12.88;;
75649;SDS011;64245;51.282;22.494;2023-03-11T06:34:20;28.98;;;13.25;;
75649;SDS011;64245;51.282;22.494;2023-03-11T06:36:46;32.35;;;14.50;;
75649;SDS011;64245;51.282;22.494;2023-03-11T06:39:12;28.50;;;12.98;;
75649;SDS011;64245;51.282;22.494;2023-03-11T06:41:40;31.35;;;14.35;;
75649;SDS011;64245;51.282;22.494;2023-03-11T06:44:06;25.13;;;12.57;;
75649;SDS011;64245;51.282;22.494;2023-03-11T06:46:32;25.13;;;14.15;;
75649;SDS011;64245;51.282;22.494;2023-03-11T06:48:57;28.02;;;12.02;;
75649;SDS011;64245;51.282;22.494;2023-03-11T06:51:23;25.58;;;12.35;;
75649;SDS011;64245;51.282;22.494;2023-03-11T06:53:49;24.48;;;12.10;;
75649;SDS011;64245;51.282;22.494;2023-03-11T06:56:17;26.50;;;11.95;;
75649;SDS011;64245;51.282;22.494;2023-03-11T06:58:44;19.33;;;10.15;;
75649;SDS011;64245;51.282;22.494;2023-03-11T07:01:14;24.58;;;12.82;;
75649;SDS011;64245;51.282;22.494;2023-03-11T07:03:44;22.33;;;10.75;;
75649;SDS011;64245;51.282;22.494;2023-03-11T07:08:38;22.85;;;11.10;;
75649;SDS011;64245;51.282;22.494;2023-03-11T07:11:04;21.40;;;10.93;;
75649;SDS011;64245;51.282;22.494;2023-03-11T07:13:32;20.25;;;10.65;;
75649;SDS011;64245;51.282;22.494;2023-03-11T07:15:58;17.80;;;9.48;;
75649;SDS011;64245;51.282;22.494;2023-03-11T07:18:28;19.25;;;10.00;;
75649;SDS011;64245;51.282;22.494;2023-03-11T07:20:54;20.08;;;10.27;;
75649;SDS011;64245;51.282;22.494;2023-03-11T07:23:19;18.23;;;9.68;;
75649;SDS011;64245;51.282;22.494;2023-03-11T07:25:45;19.23;;;9.68;;
75649;SDS011;64245;51.282;22.494;2023-03-11T07:28:12;17.58;;;10.30;;
75649;SDS011;64245;51.282;22.494;2023-03-11T07:30:38;17.20;;;8.70;;
75649;SDS011;64245;51.282;22.494;2023-03-11T07:33:04;21.55;;;10.60;;
75649;SDS011;64245;51.282;22.494;2023-03-11T07:35:30;18.52;;;9.88;;
75649;SDS011;64245;51.282;22.494;2023-03-11T07:37:55;21.90;;;10.82;;
75649;SDS011;64245;51.282;22.494;2023-03-11T07:40:21;25.38;;;10.98;;
75649;SDS011;64245;51.282;22.494;2023-03-11T07:42:47;19.63;;;10.93;;
75649;SDS011;64245;51.282;22.494;2023-03-11T07:45:13;19.83;;;10.23;;
75649;SDS011;64245;51.282;22.494;2023-03-11T07:47:39;19.73;;;10.50;;
75649;SDS011;64245;51.282;22.494;2023-03-11T07:50:05;16.40;;;8.90;;
75649;SDS011;64245;51.282;22.494;2023-03-11T07:52:30;16.83;;;9.90;;
75649;SDS011;64245;51.282;22.494;2023-03-11T07:54:57;15.95;;;9.32;;
75649;SDS011;64245;51.282;22.494;2023-03-11T07:57:23;13.82;;;8.32;;
75649;SDS011;64245;51.282;22.494;2023-03-11T07:59:49;14.98;;;8.23;;
75649;SDS011;64245;51.282;22.494;2023-03-11T08:02:14;14.70;;;8.35;;
75649;SDS011;64245;51.282;22.494;2023-03-11T08:04:40;12.98;;;8.10;;
75649;SDS011;64245;51.282;22.494;2023-03-11T08:07:06;14.32;;;7.35;;
75649;SDS011;64245;51.282;22.494;2023-03-11T08:09:35;12.43;;;7.63;;
75649;SDS011;64245;51.282;22.494;2023-03-11T08:14:27;6.60;;;3.20;;
75649;SDS011;64245;51.282;22.494;2023-03-11T08:16:52;12.70;;;6.63;;
75649;SDS011;64245;51.282;22.494;2023-03-11T08:19:18;8.20;;;4.18;;
75649;SDS011;64245;51.282;22.494;2023-03-11T08:21:43;12.48;;;6.93;;
75649;SDS011;64245;51.282;22.494;2023-03-11T08:24:10;12.68;;;7.88;;
75649;SDS011;64245;51.282;22.494;2023-03-11T08:26:37;9.60;;;6.78;;
75649;SDS011;64245;51.282;22.494;2023-03-11T08:29:04;8.70;;;5.32;;
75649;SDS011;64245;51.282;22.494;2023-03-11T08:31:30;8.20;;;4.78;;
75649;SDS011;64245;51.282;22.494;2023-03-11T08:33:59;6.65;;;3.13;;
75649;SDS011;64245;51.282;22.494;2023-03-11T08:38:52;6.00;;;2.88;;
75649;SDS011;64245;51.282;22.494;2023-03-11T08:41:26;6.75;;;4.32;;
75649;SDS011;64245;51.282;22.494;2023-03-11T08:43:52;4.32;;;2.95;;
75649;SDS011;64245;51.282;22.494;2023-03-11T08:46:26;9.40;;;4.68;;
75649;SDS011;64245;51.282;22.494;2023-03-11T08:48:57;6.25;;;3.47;;
75649;SDS011;64245;51.282;22.494;2023-03-11T08:51:23;6.45;;;4.07;;
75649;SDS011;64245;51.282;22.494;2023-03-11T08:53:50;5.50;;;3.60;;
75649;SDS011;64245;51.282;22.494;2023-03-11T08:56:17;5.35;;;3.40;;
75649;SDS011;64245;51.282;22.494;2023-03-11T08:58:44;4.47;;;2.90;;
75649;SDS011;64245;51.282;22.494;2023-03-11T09:01:10;4.60;;;2.65;;
75649;SDS011;64245;51.282;22.494;2023-03-11T09:03:38;4.65;;;2.75;;
75649;SDS011;64245;51.282;22.494;2023-03-11T09:06:04;5.28;;;2.83;;
75649;SDS011;64245;51.282;22.494;2023-03-11T09:08:33;2.42;;;1.85;;
75649;SDS011;64245;51.282;22.494;2023-03-11T09:10:59;4.97;;;2.38;;
75649;SDS011;64245;51.282;22.494;2023-03-11T09:13:26;5.65;;;2.65;;
75649;SDS011;64245;51.282;22.494;2023-03-11T09:15:52;3.63;;;2.92;;
75649;SDS011;64245;51.282;22.494;2023-03-11T09:18:18;4.43;;;3.40;;
75649;SDS011;64245;51.282;22.494;2023-03-11T09:20:44;4.03;;;3.40;;
75649;SDS011;64245;51.282;22.494;2023-03-11T09:23:11;6.75;;;3.58;;
75649;SDS011;64245;51.282;22.494;2023-03-11T09:25:38;6.00;;;3.45;;
75649;SDS011;64245;51.282;22.494;2023-03-11T09:28:04;3.83;;;3.22;;
75649;SDS011;64245;51.282;22.494;2023-03-11T09:30:30;4.53;;;3.17;;
75649;SDS011;64245;51.282;22.494;2023-03-11T09:32:56;3.60;;;2.72;;
75649;SDS011;64245;51.282;22.494;2023-03-11T09:35:22;5.38;;;3.40;;
75649;SDS011;64245;51.282;22.494;2023-03-11T09:37:48;3.80;;;2.72;;
75649;SDS011;64245;51.282;22.494;2023-03-11T09:40:14;3.40;;;2.28;;
75649;SDS011;64245;51.282;22.494;2023-03-11T09:42:53;3.97;;;2.47;;
75649;SDS011;64245;51.282;22.494;2023-03-11T09:45:30;3.33;;;2.28;;
75649;SDS011;64245;51.282;22.494;2023-03-11T09:55:58;2.60;;;1.38;;
75649;SDS011;64245;51.282;22.494;2023-03-11T09:58:34;2.40;;;1.88;;
75649;SDS011;64245;51.282;22.494;2023-03-11T10:01:20;1.92;;;1.58;;
75649;SDS011;64245;51.282;22.494;2023-03-11T10:03:51;2.75;;;1.63;;
75649;SDS011;64245;51.282;22.494;2023-03-11T10:06:20;2.10;;;1.70;;
75649;SDS011;64245;51.282;22.494;2023-03-11T10:14:42;1.90;;;0.95;;
75649;SDS011;64245;51.282;22.494;2023-03-11T10:20:41;3.28;;;2.25;;
75649;SDS011;64245;51.282;22.494;2023-03-11T10:26:11;3.08;;;1.88;;
75649;SDS011;64245;51.282;22.494;2023-03-11T10:28:53;2.67;;;1.35;;
75649;SDS011;64245;51.282;22.494;2023-03-11T10:31:26;2.33;;;1.63;;
75649;SDS011;64245;51.282;22.494;2023-03-11T10:34:00;4.10;;;2.05;;
75649;SDS011;64245;51.282;22.494;2023-03-11T10:36:37;3.28;;;2.20;;
75649;SDS011;64245;51.282;22.494;2023-03-11T10:39:07;2.88;;;1.40;;
75649;SDS011;64245;51.282;22.494;2023-03-11T10:41:49;4.10;;;2.13;;
75649;SDS011;64245;51.282;22.494;2023-03-11T10:44:31;2.58;;;2.03;;
75649;SDS011;64245;51.282;22.494;2023-03-11T10:46:59;2.40;;;1.63;;
75649;SDS011;64245;51.282;22.494;2023-03-11T10:49:26;3.97;;;1.63;;
75649;SDS011;64245;51.282;22.494;2023-03-11T10:51:52;2.72;;;1.73;;
75649;SDS011;64245;51.282;22.494;2023-03-11T10:56:54;2.47;;;1.15;;
75649;SDS011;64245;51.282;22.494;2023-03-11T11:02:22;2.15;;;1.45;;
75649;SDS011;64245;51.282;22.494;2023-03-11T11:07:42;0.85;;;0.60;;
75649;SDS011;64245;51.282;22.494;2023-03-11T11:10:16;2.65;;;1.10;;
75649;SDS011;64245;51.282;22.494;2023-03-11T11:15:37;1.60;;;1.20;;
75649;SDS011;64245;51.282;22.494;2023-03-11T11:18:20;2.95;;;1.30;;
75649;SDS011;64245;51.282;22.494;2023-03-11T11:20:58;2.13;;;1.00;;
75649;SDS011;64245;51.282;22.494;2023-03-11T11:23:31;1.77;;;1.00;;
75649;SDS011;64245;51.282;22.494;2023-03-11T11:26:00;1.55;;;0.98;;
75649;SDS011;64245;51.282;22.494;2023-03-11T11:28:29;1.02;;;0.75;;
75649;SDS011;64245;51.282;22.494;2023-03-11T11:30:57;1.63;;;0.95;;
75649;SDS011;64245;51.282;22.494;2023-03-11T11:35:53;0.50;;;0.40;;
75649;SDS011;64245;51.282;22.494;2023-03-11T11:38:22;1.70;;;1.00;;
75649;SDS011;64245;51.282;22.494;2023-03-11T11:40:49;1.55;;;0.85;;
75649;SDS011;64245;51.282;22.494;2023-03-11T11:43:20;2.38;;;0.90;;
75649;SDS011;64245;51.282;22.494;2023-03-11T11:45:58;1.25;;;0.88;;
75649;SDS011;64245;51.282;22.494;2023-03-11T11:51:14;2.88;;;1.65;;
75649;SDS011;64245;51.282;22.494;2023-03-11T11:53:48;2.08;;;1.65;;
75649;SDS011;64245;51.282;22.494;2023-03-11T11:56:43;1.80;;;1.63;;
75649;SDS011;64245;51.282;22.494;2023-03-11T11:59:14;1.77;;;0.80;;
75649;SDS011;64245;51.282;22.494;2023-03-11T12:01:45;1.52;;;1.02;;
75649;SDS011;64245;51.282;22.494;2023-03-11T12:04:45;2.42;;;1.20;;
75649;SDS011;64245;51.282;22.494;2023-03-11T12:13:03;3.05;;;1.55;;
75649;SDS011;64245;51.282;22.494;2023-03-11T12:15:45;1.15;;;0.90;;
75649;SDS011;64245;51.282;22.494;2023-03-11T12:26:47;2.42;;;1.70;;
75649;SDS011;64245;51.282;22.494;2023-03-11T12:31:50;1.85;;;1.20;;
75649;SDS011;64245;51.282;22.494;2023-03-11T12:34:18;2.15;;;1.30;;
75649;SDS011;64245;51.282;22.494;2023-03-11T12:36:46;1.17;;;0.57;;
75649;SDS011;64245;51.282;22.494;2023-03-11T12:44:34;2.38;;;1.20;;
75649;SDS011;64245;51.282;22.494;2023-03-11T12:49:34;2.20;;;1.50;;
75649;SDS011;64245;51.282;22.494;2023-03-11T12:54:39;3.50;;;1.60;;
75649;SDS011;64245;51.282;22.494;2023-03-11T13:08:09;7.75;;;3.75;;
75649;SDS011;64245;51.282;22.494;2023-03-11T13:10:41;6.43;;;3.30;;
75649;SDS011;64245;51.282;22.494;2023-03-11T13:13:21;9.57;;;4.03;;
75649;SDS011;64245;51.282;22.494;2023-03-11T13:18:39;3.92;;;2.30;;
75649;SDS011;64245;51.282;22.494;2023-03-11T13:26:49;3.78;;;2.03;;
75649;SDS011;64245;51.282;22.494;2023-03-11T13:29:28;4.15;;;2.20;;
75649;SDS011;64245;51.282;22.494;2023-03-11T13:32:19;4.80;;;2.05;;
75649;SDS011;64245;51.282;22.494;2023-03-11T13:43:04;3.42;;;2.58;;
75649;SDS011;64245;51.282;22.494;2023-03-11T13:45:36;2.53;;;1.75;;
75649;SDS011;64245;51.282;22.494;2023-03-11T13:50:44;3.92;;;2.08;;
75649;SDS011;64245;51.282;22.494;2023-03-11T13:53:16;5.32;;;3.58;;
75649;SDS011;64245;51.282;22.494;2023-03-11T13:55:47;4.78;;;3.47;;
75649;SDS011;64245;51.282;22.494;2023-03-11T13:58:14;6.18;;;4.30;;
75649;SDS011;64245;51.282;22.494;2023-03-11T14:03:16;11.65;;;5.95;;
75649;SDS011;64245;51.282;22.494;2023-03-11T14:05:47;13.88;;;7.30;;
75649;SDS011;64245;51.282;22.494;2023-03-11T14:08:19;8.85;;;5.13;;
75649;SDS011;64245;51.282;22.494;2023-03-11T14:13:26;6.50;;;3.90;;
75649;SDS011;64245;51.282;22.494;2023-03-11T14:15:58;6.55;;;3.75;;
75649;SDS011;64245;51.282;22.494;2023-03-11T14:20:58;6.60;;;3.80;;
75649;SDS011;64245;51.282;22.494;2023-03-11T14:23:29;4.90;;;2.65;;
75649;SDS011;64245;51.282;22.494;2023-03-11T14:25:59;4.38;;;2.47;;
75649;SDS011;64245;51.282;22.494;2023-03-11T14:28:30;5.85;;;3.03;;
75649;SDS011;64245;51.282;22.494;2023-03-11T14:30:59;4.53;;;3.30;;
75649;SDS011;64245;51.282;22.494;2023-03-11T14:33:26;3.53;;;2.50;;
75649;SDS011;64245;51.282;22.494;2023-03-11T14:38:20;5.20;;;3.78;;
75649;SDS011;64245;51.282;22.494;2023-03-11T14:40:49;13.25;;;7.93;;
75649;SDS011;64245;51.282;22.494;2023-03-11T14:43:19;10.65;;;5.35;;
75649;SDS011;64245;51.282;22.494;2023-03-11T14:45:46;8.20;;;3.83;;
75649;SDS011;64245;51.282;22.494;2023-03-11T14:50:45;8.95;;;4.47;;
75649;SDS011;64245;51.282;22.494;2023-03-11T14:53:31;8.48;;;4.70;;
75649;SDS011;64245;51.282;22.494;2023-03-11T14:56:03;11.25;;;7.75;;
75649;SDS011;64245;51.282;22.494;2023-03-11T14:58:54;12.68;;;7.45;;
75649;SDS011;64245;51.282;22.494;2023-03-11T15:01:37;9.10;;;6.18;;
75649;SDS011;64245;51.282;22.494;2023-03-11T15:04:06;14.57;;;7.70;;
75649;SDS011;64245;51.282;22.494;2023-03-11T15:06:41;12.30;;;6.70;;
75649;SDS011;64245;51.282;22.494;2023-03-11T15:09:14;14.57;;;7.63;;
75649;SDS011;64245;51.282;22.494;2023-03-11T15:11:43;12.40;;;6.20;;
75649;SDS011;64245;51.282;22.494;2023-03-11T15:14:29;10.68;;;5.50;;
75649;SDS011;64245;51.282;22.494;2023-03-11T15:17:16;17.50;;;9.48;;
75649;SDS011;64245;51.282;22.494;2023-03-11T15:19:51;14.48;;;5.50;;
75649;SDS011;64245;51.282;22.494;2023-03-11T15:24:55;15.93;;;9.43;;
75649;SDS011;64245;51.282;22.494;2023-03-11T15:27:27;7.80;;;4.38;;
75649;SDS011;64245;51.282;22.494;2023-03-11T15:30:13;12.48;;;6.65;;
75649;SDS011;64245;51.282;22.494;2023-03-11T15:32:44;11.50;;;5.53;;
75649;SDS011;64245;51.282;22.494;2023-03-11T15:37:39;11.18;;;6.18;;
75649;SDS011;64245;51.282;22.494;2023-03-11T15:43:54;5.68;;;3.72;;
75649;SDS011;64245;51.282;22.494;2023-03-11T15:45:56;7.60;;;4.90;;
75649;SDS011;64245;51.282;22.494;2023-03-11T15:48:24;7.20;;;4.70;;
75649;SDS011;64245;51.282;22.494;2023-03-11T15:50:53;8.27;;;4.70;;
75649;SDS011;64245;51.282;22.494;2023-03-11T15:53:22;8.80;;;4.53;;
75649;SDS011;64245;51.282;22.494;2023-03-11T15:55:49;16.20;;;7.57;;
75649;SDS011;64245;51.282;22.494;2023-03-11T15:58:16;11.02;;;4.63;;
75649;SDS011;64245;51.282;22.494;2023-03-11T16:00:46;11.82;;;6.25;;
75649;SDS011;64245;51.282;22.494;2023-03-11T16:03:15;14.80;;;7.97;;
75649;SDS011;64245;51.282;22.494;2023-03-11T16:05:41;11.48;;;7.07;;
75649;SDS011;64245;51.282;22.494;2023-03-11T16:08:07;10.40;;;6.00;;
75649;SDS011;64245;51.282;22.494;2023-03-11T16:10:32;10.27;;;5.25;;
75649;SDS011;64245;51.282;22.494;2023-03-11T16:12:59;14.82;;;7.65;;
75649;SDS011;64245;51.282;22.494;2023-03-11T16:15:25;11.32;;;6.97;;
75649;SDS011;64245;51.282;22.494;2023-03-11T16:17:54;14.10;;;8.38;;
75649;SDS011;64245;51.282;22.494;2023-03-11T16:20:22;14.43;;;7.47;;
75649;SDS011;64245;51.282;22.494;2023-03-11T16:22:49;12.55;;;6.18;;
75649;SDS011;64245;51.282;22.494;2023-03-11T16:25:19;15.18;;;7.05;;
75649;SDS011;64245;51.282;22.494;2023-03-11T16:27:49;19.05;;;10.25;;
75649;SDS011;64245;51.282;22.494;2023-03-11T16:30:16;14.63;;;5.90;;
75649;SDS011;64245;51.282;22.494;2023-03-11T16:32:42;26.67;;;12.23;;
75649;SDS011;64245;51.282;22.494;2023-03-11T16:35:08;17.45;;;7.43;;
75649;SDS011;64245;51.282;22.494;2023-03-11T16:37:35;16.75;;;7.97;;
75649;SDS011;64245;51.282;22.494;2023-03-11T16:40:00;18.73;;;9.00;;
75649;SDS011;64245;51.282;22.494;2023-03-11T16:42:26;21.70;;;9.23;;
75649;SDS011;64245;51.282;22.494;2023-03-11T16:44:52;21.65;;;12.40;;